sensor_id;sensor_type;location;lat;lon;timestamp;P1;durP1;ratioP1;P2;durP2;ratioP2
9445;SDS011;4761;49.490;10.908;2023-12-04T00:01:45;7.80;;;7.00;;
9445;SDS011;4761;49.490;10.908;2023-12-04T00:04:11;8.03;;;7.20;;
9445;SDS011;4761;49.490;10.908;2023-12-04T00:06:37;7.60;;;6.80;;
9445;SDS011;4761;49.490;10.908;2023-12-04T00:09:03;7.30;;;6.60;;
9445;SDS011;4761;49.490;10.908;2023-12-04T00:11:28;7.50;;;6.80;;
9445;SDS011;4761;49.490;10.908;2023-12-04T00:13:54;7.47;;;6.70;;
9445;SDS011;4761;49.490;10.908;2023-12-04T00:16:19;7.10;;;6.40;;
9445;SDS011;4761;49.490;10.908;2023-12-04T00:18:45;6.67;;;6.07;;
9445;SDS011;4761;49.490;10.908;2023-12-04T00:21:10;7.20;;;6.50;;
9445;SDS011;4761;49.490;10.908;2023-12-04T00:23:37;7.00;;;6.30;;
9445;SDS011;4761;49.490;10.908;2023-12-04T00:26:03;6.57;;;5.97;;
9445;SDS011;4761;49.490;10.908;2023-12-04T00:28:29;7.03;;;6.33;;
9445;SDS011;4761;49.490;10.908;2023-12-04T00:30:54;6.43;;;5.83;;
9445;SDS011;4761;49.490;10.908;2023-12-04T00:33:20;6.57;;;5.87;;
9445;SDS011;4761;49.490;10.908;2023-12-04T00:35:45;7.23;;;6.47;;
9445;SDS011;4761;49.490;10.908;2023-12-04T00:38:11;6.90;;;6.20;;
9445;SDS011;4761;49.490;10.908;2023-12-04T00:40:36;6.60;;;6.00;;
9445;SDS011;4761;49.490;10.908;2023-12-04T00:43:02;6.43;;;5.83;;
9445;SDS011;4761;49.490;10.908;2023-12-04T00:45:27;6.50;;;5.90;;
9445;SDS011;4761;49.490;10.908;2023-12-04T00:47:53;6.47;;;5.87;;
9445;SDS011;4761;49.490;10.908;2023-12-04T00:50:18;7.07;;;6.37;;
9445;SDS011;4761;49.490;10.908;2023-12-04T00:52:44;6.80;;;6.10;;
9445;SDS011;4761;49.490;10.908;2023-12-04T00:55:10;6.40;;;5.83;;
9445;SDS011;4761;49.490;10.908;2023-12-04T00:57:35;6.90;;;6.20;;
9445;SDS011;4761;49.490;10.908;2023-12-04T01:00:01;6.40;;;5.80;;
9445;SDS011;4761;49.490;10.908;2023-12-04T01:02:26;7.03;;;6.30;;
9445;SDS011;4761;49.490;10.908;2023-12-04T01:04:52;6.87;;;6.17;;
9445;SDS011;4761;49.490;10.908;2023-12-04T01:07:17;6.57;;;5.97;;
9445;SDS011;4761;49.490;10.908;2023-12-04T01:09:43;6.20;;;5.60;;
9445;SDS011;4761;49.490;10.908;2023-12-04T01:12:08;6.20;;;5.60;;
9445;SDS011;4761;49.490;10.908;2023-12-04T01:14:35;6.47;;;5.87;;
9445;SDS011;4761;49.490;10.908;2023-12-04T01:17:03;6.57;;;5.97;;
9445;SDS011;4761;49.490;10.908;2023-12-04T01:19:28;6.57;;;5.97;;
9445;SDS011;4761;49.490;10.908;2023-12-04T01:21:54;6.33;;;5.73;;
9445;SDS011;4761;49.490;10.908;2023-12-04T01:24:20;6.30;;;5.70;;
9445;SDS011;4761;49.490;10.908;2023-12-04T01:26:45;6.33;;;5.73;;
9445;SDS011;4761;49.490;10.908;2023-12-04T01:29:11;6.53;;;5.93;;
9445;SDS011;4761;49.490;10.908;2023-12-04T01:31:36;6.03;;;5.53;;
9445;SDS011;4761;49.490;10.908;2023-12-04T01:34:01;6.50;;;5.40;;
9445;SDS011;4761;49.490;10.908;2023-12-04T01:36:27;5.97;;;5.47;;
9445;SDS011;4761;49.490;10.908;2023-12-04T01:38:52;6.13;;;5.53;;
9445;SDS011;4761;49.490;10.908;2023-12-04T01:41:18;6.60;;;5.97;;
9445;SDS011;4761;49.490;10.908;2023-12-04T01:43:43;5.80;;;5.30;;
9445;SDS011;4761;49.490;10.908;2023-12-04T01:46:09;6.67;;;6.07;;
9445;SDS011;4761;49.490;10.908;2023-12-04T01:48:35;6.53;;;5.93;;
9445;SDS011;4761;49.490;10.908;2023-12-04T01:51:03;6.33;;;5.73;;
9445;SDS011;4761;49.490;10.908;2023-12-04T01:53:32;5.77;;;5.20;;
9445;SDS011;4761;49.490;10.908;2023-12-04T01:55:58;6.40;;;5.80;;
9445;SDS011;4761;49.490;10.908;2023-12-04T01:58:23;5.77;;;5.17;;
9445;SDS011;4761;49.490;10.908;2023-12-04T02:00:49;6.67;;;6.07;;
9445;SDS011;4761;49.490;10.908;2023-12-04T02:03:15;5.90;;;5.30;;
9445;SDS011;4761;49.490;10.908;2023-12-04T02:05:40;6.10;;;5.50;;
9445;SDS011;4761;49.490;10.908;2023-12-04T02:08:09;6.20;;;5.60;;
9445;SDS011;4761;49.490;10.908;2023-12-04T02:10:35;6.23;;;5.63;;
9445;SDS011;4761;49.490;10.908;2023-12-04T02:13:02;6.13;;;5.53;;
9445;SDS011;4761;49.490;10.908;2023-12-04T02:15:29;6.10;;;5.50;;
9445;SDS011;4761;49.490;10.908;2023-12-04T02:17:54;6.17;;;5.40;;
9445;SDS011;4761;49.490;10.908;2023-12-04T02:20:20;6.00;;;5.40;;
9445;SDS011;4761;49.490;10.908;2023-12-04T02:22:46;6.20;;;5.60;;
9445;SDS011;4761;49.490;10.908;2023-12-04T02:25:11;6.03;;;5.43;;
9445;SDS011;4761;49.490;10.908;2023-12-04T02:27:59;5.67;;;5.17;;
9445;SDS011;4761;49.490;10.908;2023-12-04T02:30:25;6.40;;;5.80;;
9445;SDS011;4761;49.490;10.908;2023-12-04T02:32:53;6.53;;;5.93;;
9445;SDS011;4761;49.490;10.908;2023-12-04T02:35:20;6.17;;;5.63;;
9445;SDS011;4761;49.490;10.908;2023-12-04T02:37:48;5.70;;;5.20;;
9445;SDS011;4761;49.490;10.908;2023-12-04T02:40:14;5.70;;;5.20;;
9445;SDS011;4761;49.490;10.908;2023-12-04T02:42:40;6.13;;;5.53;;
9445;SDS011;4761;49.490;10.908;2023-12-04T02:45:06;5.67;;;5.17;;
9445;SDS011;4761;49.490;10.908;2023-12-04T02:47:32;6.57;;;5.47;;
9445;SDS011;4761;49.490;10.908;2023-12-04T02:49:57;5.40;;;4.90;;
9445;SDS011;4761;49.490;10.908;2023-12-04T02:52:23;5.30;;;4.80;;
9445;SDS011;4761;49.490;10.908;2023-12-04T02:54:48;6.20;;;5.60;;
9445;SDS011;4761;49.490;10.908;2023-12-04T02:57:14;6.40;;;5.80;;
9445;SDS011;4761;49.490;10.908;2023-12-04T02:59:40;5.50;;;5.00;;
9445;SDS011;4761;49.490;10.908;2023-12-04T03:02:05;5.70;;;5.20;;
9445;SDS011;4761;49.490;10.908;2023-12-04T03:04:31;5.57;;;5.07;;
9445;SDS011;4761;49.490;10.908;2023-12-04T03:06:57;6.37;;;5.77;;
9445;SDS011;4761;49.490;10.908;2023-12-04T03:09:22;5.87;;;5.27;;
9445;SDS011;4761;49.490;10.908;2023-12-04T03:11:48;5.70;;;5.20;;
9445;SDS011;4761;49.490;10.908;2023-12-04T03:14:13;5.90;;;5.30;;
9445;SDS011;4761;49.490;10.908;2023-12-04T03:16:39;5.50;;;5.00;;
9445;SDS011;4761;49.490;10.908;2023-12-04T03:19:05;6.00;;;5.40;;
9445;SDS011;4761;49.490;10.908;2023-12-04T03:21:30;5.60;;;5.10;;
9445;SDS011;4761;49.490;10.908;2023-12-04T03:23:56;5.90;;;5.40;;
9445;SDS011;4761;49.490;10.908;2023-12-04T03:26:21;5.47;;;4.97;;
9445;SDS011;4761;49.490;10.908;2023-12-04T03:28:47;5.40;;;4.90;;
9445;SDS011;4761;49.490;10.908;2023-12-04T03:31:12;5.57;;;5.07;;
9445;SDS011;4761;49.490;10.908;2023-12-04T03:33:38;5.53;;;5.00;;
9445;SDS011;4761;49.490;10.908;2023-12-04T03:36:04;5.87;;;5.37;;
9445;SDS011;4761;49.490;10.908;2023-12-04T03:38:30;5.33;;;4.83;;
9445;SDS011;4761;49.490;10.908;2023-12-04T03:40:55;5.30;;;4.80;;
9445;SDS011;4761;49.490;10.908;2023-12-04T03:43:21;5.90;;;5.33;;
9445;SDS011;4761;49.490;10.908;2023-12-04T03:45:47;6.10;;;5.50;;
9445;SDS011;4761;49.490;10.908;2023-12-04T03:48:12;5.87;;;5.37;;
9445;SDS011;4761;49.490;10.908;2023-12-04T03:50:38;5.73;;;5.23;;
9445;SDS011;4761;49.490;10.908;2023-12-04T03:53:03;5.70;;;5.20;;
9445;SDS011;4761;49.490;10.908;2023-12-04T03:55:29;5.87;;;5.37;;
9445;SDS011;4761;49.490;10.908;2023-12-04T03:57:54;5.70;;;5.20;;
9445;SDS011;4761;49.490;10.908;2023-12-04T04:00:21;6.10;;;5.50;;
9445;SDS011;4761;49.490;10.908;2023-12-04T04:02:47;6.10;;;5.50;;
9445;SDS011;4761;49.490;10.908;2023-12-04T04:05:13;5.93;;;5.43;;
9445;SDS011;4761;49.490;10.908;2023-12-04T04:07:39;5.90;;;5.40;;
9445;SDS011;4761;49.490;10.908;2023-12-04T04:10:05;5.60;;;5.10;;
9445;SDS011;4761;49.490;10.908;2023-12-04T04:12:31;5.70;;;5.20;;
9445;SDS011;4761;49.490;10.908;2023-12-04T04:14:57;5.57;;;5.07;;
9445;SDS011;4761;49.490;10.908;2023-12-04T04:17:23;5.60;;;5.10;;
9445;SDS011;4761;49.490;10.908;2023-12-04T04:19:54;5.60;;;5.10;;
9445;SDS011;4761;49.490;10.908;2023-12-04T04:22:20;5.90;;;5.40;;
9445;SDS011;4761;49.490;10.908;2023-12-04T04:24:47;5.57;;;5.07;;
9445;SDS011;4761;49.490;10.908;2023-12-04T04:27:13;5.50;;;5.00;;
9445;SDS011;4761;49.490;10.908;2023-12-04T04:29:39;5.23;;;4.73;;
9445;SDS011;4761;49.490;10.908;2023-12-04T04:32:04;5.77;;;5.27;;
9445;SDS011;4761;49.490;10.908;2023-12-04T04:34:30;6.00;;;5.47;;
9445;SDS011;4761;49.490;10.908;2023-12-04T04:36:56;5.93;;;5.33;;
9445;SDS011;4761;49.490;10.908;2023-12-04T04:39:22;5.63;;;5.13;;
9445;SDS011;4761;49.490;10.908;2023-12-04T04:41:47;5.70;;;5.20;;
9445;SDS011;4761;49.490;10.908;2023-12-04T04:44:13;5.43;;;4.93;;
9445;SDS011;4761;49.490;10.908;2023-12-04T04:46:38;5.87;;;5.33;;
9445;SDS011;4761;49.490;10.908;2023-12-04T04:49:04;5.90;;;5.40;;
9445;SDS011;4761;49.490;10.908;2023-12-04T04:51:31;5.47;;;4.97;;
9445;SDS011;4761;49.490;10.908;2023-12-04T04:53:57;6.27;;;5.67;;
9445;SDS011;4761;49.490;10.908;2023-12-04T04:56:23;5.30;;;4.80;;
9445;SDS011;4761;49.490;10.908;2023-12-04T04:58:48;5.53;;;5.03;;
9445;SDS011;4761;49.490;10.908;2023-12-04T05:01:14;5.30;;;4.80;;
9445;SDS011;4761;49.490;10.908;2023-12-04T05:03:40;5.73;;;5.23;;
9445;SDS011;4761;49.490;10.908;2023-12-04T05:06:05;5.63;;;5.13;;
9445;SDS011;4761;49.490;10.908;2023-12-04T05:08:31;5.13;;;4.63;;
9445;SDS011;4761;49.490;10.908;2023-12-04T05:10:57;5.63;;;5.03;;
9445;SDS011;4761;49.490;10.908;2023-12-04T05:13:22;5.30;;;4.80;;
9445;SDS011;4761;49.490;10.908;2023-12-04T05:15:48;5.60;;;5.03;;
9445;SDS011;4761;49.490;10.908;2023-12-04T05:18:13;5.13;;;4.63;;
9445;SDS011;4761;49.490;10.908;2023-12-04T05:20:39;5.70;;;5.10;;
9445;SDS011;4761;49.490;10.908;2023-12-04T05:23:04;5.10;;;4.70;;
9445;SDS011;4761;49.490;10.908;2023-12-04T05:25:30;5.03;;;4.53;;
9445;SDS011;4761;49.490;10.908;2023-12-04T05:27:56;5.03;;;4.60;;
9445;SDS011;4761;49.490;10.908;2023-12-04T05:30:21;5.27;;;4.77;;
9445;SDS011;4761;49.490;10.908;2023-12-04T05:32:46;5.13;;;4.70;;
9445;SDS011;4761;49.490;10.908;2023-12-04T05:35:12;5.00;;;4.60;;
9445;SDS011;4761;49.490;10.908;2023-12-04T05:37:40;6.57;;;4.93;;
9445;SDS011;4761;49.490;10.908;2023-12-04T05:40:05;4.83;;;4.43;;
9445;SDS011;4761;49.490;10.908;2023-12-04T05:42:31;5.17;;;4.70;;
9445;SDS011;4761;49.490;10.908;2023-12-04T05:44:57;5.00;;;4.50;;
9445;SDS011;4761;49.490;10.908;2023-12-04T05:47:22;5.37;;;4.87;;
9445;SDS011;4761;49.490;10.908;2023-12-04T05:49:48;5.10;;;4.60;;
9445;SDS011;4761;49.490;10.908;2023-12-04T05:52:13;4.93;;;4.47;;
9445;SDS011;4761;49.490;10.908;2023-12-04T05:54:39;4.70;;;4.30;;
9445;SDS011;4761;49.490;10.908;2023-12-04T05:57:05;5.20;;;4.70;;
9445;SDS011;4761;49.490;10.908;2023-12-04T05:59:30;5.00;;;4.60;;
9445;SDS011;4761;49.490;10.908;2023-12-04T06:01:56;4.87;;;4.47;;
9445;SDS011;4761;49.490;10.908;2023-12-04T06:04:21;5.17;;;4.77;;
9445;SDS011;4761;49.490;10.908;2023-12-04T06:06:47;5.37;;;4.87;;
9445;SDS011;4761;49.490;10.908;2023-12-04T06:09:12;4.70;;;4.30;;
9445;SDS011;4761;49.490;10.908;2023-12-04T06:11:40;4.97;;;4.47;;
9445;SDS011;4761;49.490;10.908;2023-12-04T06:14:05;4.87;;;4.47;;
9445;SDS011;4761;49.490;10.908;2023-12-04T06:16:31;5.20;;;4.70;;
9445;SDS011;4761;49.490;10.908;2023-12-04T06:18:56;5.30;;;4.80;;
9445;SDS011;4761;49.490;10.908;2023-12-04T06:21:22;4.87;;;4.47;;
9445;SDS011;4761;49.490;10.908;2023-12-04T06:23:47;4.43;;;4.03;;
9445;SDS011;4761;49.490;10.908;2023-12-04T06:26:13;4.47;;;4.07;;
9445;SDS011;4761;49.490;10.908;2023-12-04T06:28:39;4.57;;;4.17;;
9445;SDS011;4761;49.490;10.908;2023-12-04T06:31:05;4.60;;;4.20;;
9445;SDS011;4761;49.490;10.908;2023-12-04T06:33:31;4.10;;;3.80;;
9445;SDS011;4761;49.490;10.908;2023-12-04T06:35:57;4.43;;;4.03;;
9445;SDS011;4761;49.490;10.908;2023-12-04T06:38:24;5.00;;;4.60;;
9445;SDS011;4761;49.490;10.908;2023-12-04T06:40:50;4.43;;;4.03;;
9445;SDS011;4761;49.490;10.908;2023-12-04T06:43:16;4.90;;;4.50;;
9445;SDS011;4761;49.490;10.908;2023-12-04T06:45:43;5.00;;;4.60;;
9445;SDS011;4761;49.490;10.908;2023-12-04T06:48:10;5.40;;;4.90;;
9445;SDS011;4761;49.490;10.908;2023-12-04T06:50:40;4.70;;;4.30;;
9445;SDS011;4761;49.490;10.908;2023-12-04T06:53:06;4.93;;;4.53;;
9445;SDS011;4761;49.490;10.908;2023-12-04T06:55:31;5.27;;;4.77;;
9445;SDS011;4761;49.490;10.908;2023-12-04T06:57:57;4.87;;;4.37;;
9445;SDS011;4761;49.490;10.908;2023-12-04T07:00:23;4.90;;;4.50;;
9445;SDS011;4761;49.490;10.908;2023-12-04T07:02:48;5.13;;;4.70;;
9445;SDS011;4761;49.490;10.908;2023-12-04T07:05:15;5.27;;;4.17;;
9445;SDS011;4761;49.490;10.908;2023-12-04T07:07:40;5.10;;;4.60;;
9445;SDS011;4761;49.490;10.908;2023-12-04T07:10:06;5.23;;;4.73;;
9445;SDS011;4761;49.490;10.908;2023-12-04T07:12:32;4.70;;;4.30;;
9445;SDS011;4761;49.490;10.908;2023-12-04T07:14:58;5.07;;;4.60;;
9445;SDS011;4761;49.490;10.908;2023-12-04T07:17:23;5.37;;;4.77;;
9445;SDS011;4761;49.490;10.908;2023-12-04T07:19:49;5.47;;;4.97;;
9445;SDS011;4761;49.490;10.908;2023-12-04T07:22:14;5.27;;;4.77;;
9445;SDS011;4761;49.490;10.908;2023-12-04T07:24:40;5.63;;;5.13;;
9445;SDS011;4761;49.490;10.908;2023-12-04T07:27:05;6.00;;;5.50;;
9445;SDS011;4761;49.490;10.908;2023-12-04T07:29:31;6.57;;;5.97;;
9445;SDS011;4761;49.490;10.908;2023-12-04T07:31:57;6.33;;;5.73;;
9445;SDS011;4761;49.490;10.908;2023-12-04T07:34:23;7.07;;;6.37;;
9445;SDS011;4761;49.490;10.908;2023-12-04T07:36:49;7.00;;;6.30;;
9445;SDS011;4761;49.490;10.908;2023-12-04T07:39:15;6.70;;;6.00;;
9445;SDS011;4761;49.490;10.908;2023-12-04T07:41:41;6.37;;;5.77;;
9445;SDS011;4761;49.490;10.908;2023-12-04T07:44:06;5.90;;;5.37;;
9445;SDS011;4761;49.490;10.908;2023-12-04T07:46:32;6.33;;;5.73;;
9445;SDS011;4761;49.490;10.908;2023-12-04T07:48:57;5.70;;;5.20;;
9445;SDS011;4761;49.490;10.908;2023-12-04T07:51:23;6.00;;;5.40;;
9445;SDS011;4761;49.490;10.908;2023-12-04T07:53:48;6.10;;;5.50;;
9445;SDS011;4761;49.490;10.908;2023-12-04T07:56:14;5.90;;;5.40;;
9445;SDS011;4761;49.490;10.908;2023-12-04T07:58:40;5.83;;;5.33;;
9445;SDS011;4761;49.490;10.908;2023-12-04T08:01:05;5.60;;;5.10;;
9445;SDS011;4761;49.490;10.908;2023-12-04T08:03:31;5.80;;;5.20;;
9445;SDS011;4761;49.490;10.908;2023-12-04T08:05:57;5.30;;;4.80;;
9445;SDS011;4761;49.490;10.908;2023-12-04T08:08:23;5.93;;;5.33;;
9445;SDS011;4761;49.490;10.908;2023-12-04T08:10:49;5.80;;;5.30;;
9445;SDS011;4761;49.490;10.908;2023-12-04T08:13:14;5.77;;;5.13;;
9445;SDS011;4761;49.490;10.908;2023-12-04T08:15:41;5.23;;;4.73;;
9445;SDS011;4761;49.490;10.908;2023-12-04T08:18:06;5.50;;;5.00;;
9445;SDS011;4761;49.490;10.908;2023-12-04T08:20:32;5.27;;;4.77;;
9445;SDS011;4761;49.490;10.908;2023-12-04T08:22:58;5.50;;;5.00;;
9445;SDS011;4761;49.490;10.908;2023-12-04T08:25:23;5.40;;;4.90;;
9445;SDS011;4761;49.490;10.908;2023-12-04T08:27:49;5.07;;;4.57;;
9445;SDS011;4761;49.490;10.908;2023-12-04T08:30:14;5.23;;;4.73;;
9445;SDS011;4761;49.490;10.908;2023-12-04T08:32:40;5.30;;;4.80;;
9445;SDS011;4761;49.490;10.908;2023-12-04T08:35:06;4.73;;;4.30;;
9445;SDS011;4761;49.490;10.908;2023-12-04T08:37:31;4.83;;;4.43;;
9445;SDS011;4761;49.490;10.908;2023-12-04T08:39:57;4.97;;;4.57;;
9445;SDS011;4761;49.490;10.908;2023-12-04T08:42:22;4.77;;;4.37;;
9445;SDS011;4761;49.490;10.908;2023-12-04T08:44:48;5.40;;;4.90;;
9445;SDS011;4761;49.490;10.908;2023-12-04T08:47:13;4.90;;;4.50;;
9445;SDS011;4761;49.490;10.908;2023-12-04T08:49:42;5.00;;;4.60;;
9445;SDS011;4761;49.490;10.908;2023-12-04T08:52:08;4.43;;;4.03;;
9445;SDS011;4761;49.490;10.908;2023-12-04T08:54:34;4.40;;;4.00;;
9445;SDS011;4761;49.490;10.908;2023-12-04T08:57:00;4.67;;;4.27;;
9445;SDS011;4761;49.490;10.908;2023-12-04T08:59:26;4.90;;;4.37;;
9445;SDS011;4761;49.490;10.908;2023-12-04T09:01:51;4.77;;;4.27;;
9445;SDS011;4761;49.490;10.908;2023-12-04T09:04:17;4.37;;;3.97;;
9445;SDS011;4761;49.490;10.908;2023-12-04T09:06:42;4.20;;;3.80;;
9445;SDS011;4761;49.490;10.908;2023-12-04T09:09:08;4.40;;;4.00;;
9445;SDS011;4761;49.490;10.908;2023-12-04T09:11:33;4.60;;;4.17;;
9445;SDS011;4761;49.490;10.908;2023-12-04T09:13:59;4.70;;;3.93;;
9445;SDS011;4761;49.490;10.908;2023-12-04T09:16:24;4.10;;;3.70;;
9445;SDS011;4761;49.490;10.908;2023-12-04T09:18:50;4.40;;;4.00;;
9445;SDS011;4761;49.490;10.908;2023-12-04T09:21:16;4.63;;;4.23;;
9445;SDS011;4761;49.490;10.908;2023-12-04T09:23:42;4.20;;;3.80;;
9445;SDS011;4761;49.490;10.908;2023-12-04T09:26:07;4.17;;;3.77;;
9445;SDS011;4761;49.490;10.908;2023-12-04T09:28:33;4.17;;;3.77;;
9445;SDS011;4761;49.490;10.908;2023-12-04T09:31:01;4.40;;;4.00;;
9445;SDS011;4761;49.490;10.908;2023-12-04T09:33:27;4.00;;;3.70;;
9445;SDS011;4761;49.490;10.908;2023-12-04T09:35:52;4.20;;;3.80;;
9445;SDS011;4761;49.490;10.908;2023-12-04T09:38:18;4.17;;;3.77;;
9445;SDS011;4761;49.490;10.908;2023-12-04T09:40:43;4.67;;;4.17;;
9445;SDS011;4761;49.490;10.908;2023-12-04T09:43:09;4.40;;;4.00;;
9445;SDS011;4761;49.490;10.908;2023-12-04T09:45:35;4.10;;;3.70;;
9445;SDS011;4761;49.490;10.908;2023-12-04T09:48:02;4.30;;;3.90;;
9445;SDS011;4761;49.490;10.908;2023-12-04T09:50:28;4.10;;;3.70;;
9445;SDS011;4761;49.490;10.908;2023-12-04T09:52:53;3.77;;;3.47;;
9445;SDS011;4761;49.490;10.908;2023-12-04T09:55:24;4.27;;;3.87;;
9445;SDS011;4761;49.490;10.908;2023-12-04T09:57:49;4.27;;;3.87;;
9445;SDS011;4761;49.490;10.908;2023-12-04T10:00:15;3.97;;;3.57;;
9445;SDS011;4761;49.490;10.908;2023-12-04T10:02:42;4.47;;;4.07;;
9445;SDS011;4761;49.490;10.908;2023-12-04T10:05:08;3.77;;;3.47;;
9445;SDS011;4761;49.490;10.908;2023-12-04T10:07:34;3.93;;;3.53;;
9445;SDS011;4761;49.490;10.908;2023-12-04T10:10:01;4.17;;;3.77;;
9445;SDS011;4761;49.490;10.908;2023-12-04T10:12:29;4.27;;;3.87;;
9445;SDS011;4761;49.490;10.908;2023-12-04T10:15:05;3.80;;;3.50;;
9445;SDS011;4761;49.490;10.908;2023-12-04T10:17:39;3.90;;;3.50;;
9445;SDS011;4761;49.490;10.908;2023-12-04T10:20:16;3.70;;;3.40;;
9445;SDS011;4761;49.490;10.908;2023-12-04T10:22:55;3.50;;;3.20;;
9445;SDS011;4761;49.490;10.908;2023-12-04T10:25:22;3.53;;;3.23;;
9445;SDS011;4761;49.490;10.908;2023-12-04T10:27:53;3.50;;;3.20;;
9445;SDS011;4761;49.490;10.908;2023-12-04T10:30:26;3.57;;;3.27;;
9445;SDS011;4761;49.490;10.908;2023-12-04T10:33:01;3.93;;;3.63;;
9445;SDS011;4761;49.490;10.908;2023-12-04T10:35:28;3.70;;;3.40;;
9445;SDS011;4761;49.490;10.908;2023-12-04T10:37:55;3.50;;;3.20;;
9445;SDS011;4761;49.490;10.908;2023-12-04T10:40:28;3.70;;;3.37;;
9445;SDS011;4761;49.490;10.908;2023-12-04T10:45:45;4.30;;;3.20;;
9445;SDS011;4761;49.490;10.908;2023-12-04T10:48:12;4.00;;;3.30;;
9445;SDS011;4761;49.490;10.908;2023-12-04T10:50:40;3.50;;;3.20;;
9445;SDS011;4761;49.490;10.908;2023-12-04T10:53:07;3.30;;;3.00;;
9445;SDS011;4761;49.490;10.908;2023-12-04T10:55:34;3.40;;;3.10;;
9445;SDS011;4761;49.490;10.908;2023-12-04T10:58:01;3.30;;;3.00;;
9445;SDS011;4761;49.490;10.908;2023-12-04T11:00:32;3.60;;;3.30;;
9445;SDS011;4761;49.490;10.908;2023-12-04T11:03:02;3.13;;;2.83;;
9445;SDS011;4761;49.490;10.908;2023-12-04T11:05:39;3.27;;;2.97;;
9445;SDS011;4761;49.490;10.908;2023-12-04T11:08:11;3.33;;;3.03;;
9445;SDS011;4761;49.490;10.908;2023-12-04T11:10:45;3.60;;;3.30;;
9445;SDS011;4761;49.490;10.908;2023-12-04T11:16:12;3.30;;;3.00;;
9445;SDS011;4761;49.490;10.908;2023-12-04T11:18:44;3.50;;;3.07;;
9445;SDS011;4761;49.490;10.908;2023-12-04T11:21:19;3.40;;;3.10;;
9445;SDS011;4761;49.490;10.908;2023-12-04T11:23:46;3.13;;;2.83;;
9445;SDS011;4761;49.490;10.908;2023-12-04T11:26:12;3.33;;;2.90;;
9445;SDS011;4761;49.490;10.908;2023-12-04T11:28:40;3.47;;;3.17;;
9445;SDS011;4761;49.490;10.908;2023-12-04T11:31:07;3.30;;;3.00;;
9445;SDS011;4761;49.490;10.908;2023-12-04T11:33:36;3.17;;;2.87;;
9445;SDS011;4761;49.490;10.908;2023-12-04T11:36:09;3.30;;;3.00;;
9445;SDS011;4761;49.490;10.908;2023-12-04T11:38:37;3.27;;;2.97;;
9445;SDS011;4761;49.490;10.908;2023-12-04T11:41:14;3.07;;;2.77;;
9445;SDS011;4761;49.490;10.908;2023-12-04T11:43:44;3.10;;;2.80;;
9445;SDS011;4761;49.490;10.908;2023-12-04T11:46:12;3.33;;;2.97;;
9445;SDS011;4761;49.490;10.908;2023-12-04T11:48:38;3.10;;;2.80;;
9445;SDS011;4761;49.490;10.908;2023-12-04T11:51:07;3.03;;;2.73;;
9445;SDS011;4761;49.490;10.908;2023-12-04T11:53:39;2.70;;;2.50;;
9445;SDS011;4761;49.490;10.908;2023-12-04T11:56:08;3.23;;;2.93;;
9445;SDS011;4761;49.490;10.908;2023-12-04T11:58:41;2.73;;;2.53;;
9445;SDS011;4761;49.490;10.908;2023-12-04T12:01:08;2.90;;;2.70;;
9445;SDS011;4761;49.490;10.908;2023-12-04T12:03:34;3.53;;;2.97;;
9445;SDS011;4761;49.490;10.908;2023-12-04T12:05:59;3.17;;;2.87;;
9445;SDS011;4761;49.490;10.908;2023-12-04T12:08:25;3.03;;;2.80;;
9445;SDS011;4761;49.490;10.908;2023-12-04T12:10:54;3.90;;;3.50;;
9445;SDS011;4761;49.490;10.908;2023-12-04T12:13:20;3.00;;;2.70;;
9445;SDS011;4761;49.490;10.908;2023-12-04T12:15:48;2.73;;;2.53;;
9445;SDS011;4761;49.490;10.908;2023-12-04T12:18:16;3.13;;;2.73;;
9445;SDS011;4761;49.490;10.908;2023-12-04T12:20:41;3.20;;;2.90;;
9445;SDS011;4761;49.490;10.908;2023-12-04T12:23:07;2.80;;;2.60;;
9445;SDS011;4761;49.490;10.908;2023-12-04T12:25:34;3.47;;;2.80;;
9445;SDS011;4761;49.490;10.908;2023-12-04T12:28:03;2.70;;;2.43;;
9445;SDS011;4761;49.490;10.908;2023-12-04T12:30:29;3.20;;;2.80;;
9445;SDS011;4761;49.490;10.908;2023-12-04T12:32:55;2.93;;;2.63;;
9445;SDS011;4761;49.490;10.908;2023-12-04T12:35:20;2.97;;;2.57;;
9445;SDS011;4761;49.490;10.908;2023-12-04T12:37:46;2.80;;;2.53;;
9445;SDS011;4761;49.490;10.908;2023-12-04T12:40:11;3.10;;;2.80;;
9445;SDS011;4761;49.490;10.908;2023-12-04T12:42:37;2.70;;;2.50;;
9445;SDS011;4761;49.490;10.908;2023-12-04T12:45:06;2.90;;;2.37;;
9445;SDS011;4761;49.490;10.908;2023-12-04T12:47:35;3.07;;;2.70;;
9445;SDS011;4761;49.490;10.908;2023-12-04T12:50:01;3.17;;;2.87;;
9445;SDS011;4761;49.490;10.908;2023-12-04T12:52:27;2.97;;;2.67;;
9445;SDS011;4761;49.490;10.908;2023-12-04T12:54:53;2.73;;;2.53;;
9445;SDS011;4761;49.490;10.908;2023-12-04T12:57:19;3.10;;;2.70;;
9445;SDS011;4761;49.490;10.908;2023-12-04T12:59:44;2.73;;;2.50;;
9445;SDS011;4761;49.490;10.908;2023-12-04T13:02:10;2.97;;;2.73;;
9445;SDS011;4761;49.490;10.908;2023-12-04T13:04:36;3.03;;;2.73;;
9445;SDS011;4761;49.490;10.908;2023-12-04T13:07:03;3.10;;;2.77;;
9445;SDS011;4761;49.490;10.908;2023-12-04T13:09:31;2.80;;;2.60;;
9445;SDS011;4761;49.490;10.908;2023-12-04T13:11:57;2.97;;;2.70;;
9445;SDS011;4761;49.490;10.908;2023-12-04T13:14:23;3.30;;;2.53;;
9445;SDS011;4761;49.490;10.908;2023-12-04T13:16:49;3.10;;;2.80;;
9445;SDS011;4761;49.490;10.908;2023-12-04T13:19:15;2.80;;;2.60;;
9445;SDS011;4761;49.490;10.908;2023-12-04T13:21:42;4.33;;;2.80;;
9445;SDS011;4761;49.490;10.908;2023-12-04T13:24:10;3.03;;;2.70;;
9445;SDS011;4761;49.490;10.908;2023-12-04T13:26:37;3.23;;;2.80;;
9445;SDS011;4761;49.490;10.908;2023-12-04T13:29:02;3.07;;;2.57;;
9445;SDS011;4761;49.490;10.908;2023-12-04T13:31:28;2.87;;;2.57;;
9445;SDS011;4761;49.490;10.908;2023-12-04T13:33:53;3.07;;;2.77;;
9445;SDS011;4761;49.490;10.908;2023-12-04T13:36:20;3.93;;;3.03;;
9445;SDS011;4761;49.490;10.908;2023-12-04T13:38:45;3.00;;;2.70;;
9445;SDS011;4761;49.490;10.908;2023-12-04T13:41:11;3.47;;;2.53;;
9445;SDS011;4761;49.490;10.908;2023-12-04T13:43:55;3.10;;;2.80;;
9445;SDS011;4761;49.490;10.908;2023-12-04T13:46:21;3.17;;;2.87;;
9445;SDS011;4761;49.490;10.908;2023-12-04T13:48:47;3.70;;;3.20;;
9445;SDS011;4761;49.490;10.908;2023-12-04T13:51:13;4.30;;;2.80;;
9445;SDS011;4761;49.490;10.908;2023-12-04T13:53:39;2.93;;;2.67;;
9445;SDS011;4761;49.490;10.908;2023-12-04T13:56:14;3.10;;;2.90;;
9445;SDS011;4761;49.490;10.908;2023-12-04T13:58:46;3.23;;;2.93;;
9445;SDS011;4761;49.490;10.908;2023-12-04T14:01:14;3.20;;;2.90;;
9445;SDS011;4761;49.490;10.908;2023-12-04T14:03:43;3.03;;;2.80;;
9445;SDS011;4761;49.490;10.908;2023-12-04T14:06:09;3.03;;;2.73;;
9445;SDS011;4761;49.490;10.908;2023-12-04T14:08:35;2.87;;;2.63;;
9445;SDS011;4761;49.490;10.908;2023-12-04T14:11:04;3.60;;;3.00;;
9445;SDS011;4761;49.490;10.908;2023-12-04T14:13:32;2.90;;;2.70;;
9445;SDS011;4761;49.490;10.908;2023-12-04T14:15:57;3.20;;;2.90;;
9445;SDS011;4761;49.490;10.908;2023-12-04T14:18:23;3.47;;;3.17;;
9445;SDS011;4761;49.490;10.908;2023-12-04T14:20:49;3.50;;;3.20;;
9445;SDS011;4761;49.490;10.908;2023-12-04T14:23:14;3.30;;;2.80;;
9445;SDS011;4761;49.490;10.908;2023-12-04T14:25:41;3.20;;;2.90;;
9445;SDS011;4761;49.490;10.908;2023-12-04T14:28:06;3.30;;;2.93;;
9445;SDS011;4761;49.490;10.908;2023-12-04T14:30:32;3.17;;;2.80;;
9445;SDS011;4761;49.490;10.908;2023-12-04T14:32:58;3.40;;;3.10;;
9445;SDS011;4761;49.490;10.908;2023-12-04T14:35:23;3.53;;;3.20;;
9445;SDS011;4761;49.490;10.908;2023-12-04T14:37:49;3.10;;;2.80;;
9445;SDS011;4761;49.490;10.908;2023-12-04T14:40:15;3.20;;;2.90;;
9445;SDS011;4761;49.490;10.908;2023-12-04T14:42:42;3.27;;;2.80;;
9445;SDS011;4761;49.490;10.908;2023-12-04T14:45:08;3.43;;;3.13;;
9445;SDS011;4761;49.490;10.908;2023-12-04T14:47:34;3.37;;;2.97;;
9445;SDS011;4761;49.490;10.908;2023-12-04T14:50:01;3.07;;;2.60;;
9445;SDS011;4761;49.490;10.908;2023-12-04T14:52:27;4.07;;;3.13;;
9445;SDS011;4761;49.490;10.908;2023-12-04T14:54:54;3.37;;;3.03;;
9445;SDS011;4761;49.490;10.908;2023-12-04T14:57:35;3.53;;;2.97;;
9445;SDS011;4761;49.490;10.908;2023-12-04T15:00:19;3.20;;;2.90;;
9445;SDS011;4761;49.490;10.908;2023-12-04T15:03:03;3.30;;;3.00;;